Time;durP1;ratioP1;P1;durP2;ratioP2;P2;SDS_P1;SDS_P2;PMS_P1;PMS_P2;Temp;Humidity;BMP_temperature;BMP_pressure;BME280_temperature;BME280_humidity;BME280_pressure;Samples;Min_cycle;Max_cycle;Signal;HPM_P1;HPM_P2
2022/09/28 00:00:30;;;;;;;1.10;0.75;;;;;;;9.69;100.00;98603.66;8338132;28;20047;-49
2022/09/28 00:04:32;;;;;;;1.80;0.60;;;;;;;9.79;100.00;98617.75;8356064;28;20059;-49
2022/09/28 00:08:34;;;;;;;1.20;0.50;;;;;;;9.66;100.00;98610.25;8361197;28;20041;-51
2022/09/28 00:12:34;;;;;;;0.75;0.50;;;;;;;9.79;100.00;98620.44;8359209;28;20342;-52
2022/09/28 00:16:39;;;;;;;3.17;0.70;;;;;;;9.72;100.00;98611.38;8329343;28;20048;-49
2022/09/28 00:20:39;;;;;;;;;;;;;;;9.82;100.00;98606.56;8340538;28;20061;-49
2022/09/28 00:24:40;;;;;;;1.17;0.67;;;;;;;9.80;100.00;98605.94;8328117;28;19913;-50
2022/09/28 00:28:40;;;;;;;0.88;0.60;;;;;;;9.78;100.00;98600.72;8348005;28;20363;-49
2022/09/28 00:32:41;;;;;;;2.13;0.90;;;;;;;9.72;100.00;98605.97;8356175;28;20068;-50
2022/09/28 00:36:44;;;;;;;2.08;0.70;;;;;;;9.72;100.00;98603.28;8360207;28;20094;-50
2022/09/28 00:40:44;;;;;;;1.67;1.00;;;;;;;9.87;100.00;98593.38;8358042;28;20406;-52
2022/09/28 00:44:48;;;;;;;2.50;0.82;;;;;;;9.77;100.00;98595.50;8359933;28;20123;-48
2022/09/28 00:48:55;;;;;;;6.60;1.70;;;;;;;9.74;100.00;98587.75;8339546;28;20045;-49
2022/09/28 00:53:08;;;;;;;2.55;1.25;;;;;;;9.80;100.00;98587.03;8353054;28;20036;-49
2022/09/28 00:57:09;;;;;;;2.17;1.10;;;;;;;9.87;100.00;98587.97;8358158;28;20036;-49
2022/09/28 01:01:11;;;;;;;1.50;1.15;;;;;;;9.95;100.00;98585.22;8331868;28;20053;-50
2022/09/28 01:05:12;;;;;;;2.13;1.30;;;;;;;9.86;100.00;98587.13;8333166;28;20033;-49
2022/09/28 01:09:15;;;;;;;3.75;1.30;;;;;;;9.78;100.00;98583.69;8326826;28;20064;-50
2022/09/28 01:13:17;;;;;;;2.05;1.10;;;;;;;9.80;100.00;98587.03;8355311;28;20038;-49
2022/09/28 01:17:32;;;;;;;4.72;1.10;;;;;;;9.92;100.00;98574.78;8356207;28;20047;-48
2022/09/28 01:21:48;;;;;;;1.73;1.20;;;;;;;9.86;100.00;98578.22;8357626;28;20112;-50
2022/09/28 01:25:58;;;;;;;1.60;1.02;;;;;;;9.94;100.00;98578.13;8336814;28;20034;-49
2022/09/28 01:30:06;;;;;;;2.00;1.38;;;;;;;9.88;100.00;98578.84;8331521;28;20049;-50
2022/09/28 01:34:15;;;;;;;3.72;1.17;;;;;;;9.90;100.00;98582.22;8326098;28;20056;-51
2022/09/28 01:38:22;;;;;;;1.88;1.52;;;;;;;9.83;100.00;98571.31;8351755;28;20052;-49
2022/09/28 01:42:28;;;;;;;5.50;1.88;;;;;;;9.84;100.00;98572.16;8346091;28;20025;-51
2022/09/28 01:46:36;;;;;;;2.10;1.30;;;;;;;9.83;100.00;98575.88;8342628;28;20037;-51
2022/09/28 01:50:40;;;;;;;8.35;2.00;;;;;;;9.78;100.00;98572.88;8325383;28;20049;-50
2022/09/28 01:54:49;;;;;;;5.53;2.38;;;;;;;9.78;100.00;98572.88;8352623;28;20041;-49
2022/09/28 01:58:58;;;;;;;7.43;3.03;;;;;;;9.76;100.00;98564.16;8348957;28;20044;-50
2022/09/28 02:03:15;;;;;;;6.68;3.58;;;;;;;9.74;100.00;98566.19;8353552;28;20490;-49
2022/09/28 02:07:21;;;;;;;9.30;4.35;;;;;;;9.72;100.00;98565.50;8357514;28;20507;-50
2022/09/28 02:11:22;;;;;;;10.23;4.15;;;;;;;9.73;100.00;98565.34;8356665;28;20029;-48
2022/09/28 02:15:29;;;;;;;9.48;5.03;;;;;;;9.74;100.00;98555.38;8356232;28;20159;-51
2022/09/28 02:19:31;;;;;;;11.65;5.85;;;;;;;9.77;100.00;98565.81;8356747;28;20412;-49
2022/09/28 02:23:36;;;;;;;10.70;5.85;;;;;;;9.76;100.00;98572.25;8356536;28;20033;-49
2022/09/28 02:27:45;;;;;;;8.20;5.90;;;;;;;9.78;100.00;98573.72;8355352;28;20118;-49
2022/09/28 02:31:45;;;;;;;11.32;6.40;;;;;;;9.76;100.00;98570.38;8326670;28;20037;-50
2022/09/28 02:35:46;;;;;;;12.75;6.80;;;;;;;9.78;100.00;98568.34;8357493;28;20176;-52
2022/09/28 02:39:46;;;;;;;9.25;6.55;;;;;;;9.79;100.00;98566.47;8356152;28;20040;-51
2022/09/28 02:44:20;;;;;;;10.15;6.70;;;;;;;9.82;100.00;98569.63;8357160;28;20379;-51
2022/09/28 02:48:55;;;;;;;9.82;6.05;;;;;;;9.83;100.00;98565.09;8340142;28;20040;-50
2022/09/28 02:53:23;;;;;;;8.25;5.75;;;;;;;9.89;100.00;98570.56;8350831;28;20049;-50
2022/09/28 03:02:07;;;;;;;9.35;6.47;;;;;;;9.93;100.00;98573.75;8406186;27;20385;-49
2022/09/28 03:06:19;;;;;;;13.52;6.70;;;;;;;9.95;100.00;98577.13;8396162;27;20075;-49
2022/09/28 03:10:40;;;;;;;9.40;6.72;;;;;;;9.96;100.00;98570.69;8395783;27;20039;-49
2022/09/28 03:14:41;;;;;;;13.45;7.15;;;;;;;9.96;100.00;98578.78;8382160;28;20081;-49
2022/09/28 03:18:41;;;;;;;10.45;6.97;;;;;;;9.94;100.00;98572.72;8384568;28;20032;-49
2022/09/28 03:22:42;;;;;;;15.05;7.03;;;;;;;9.94;100.00;98572.72;8384588;28;20033;-51
2022/09/28 03:26:43;;;;;;;12.50;6.70;;;;;;;9.95;100.00;98579.81;8349431;28;20037;-51
2022/09/28 03:30:43;;;;;;;9.85;6.97;;;;;;;9.96;100.00;98570.69;8425250;27;20067;-50
2022/09/28 03:34:44;;;;;;;10.05;6.63;;;;;;;9.95;100.00;98575.22;8402825;27;20498;-51
2022/09/28 03:38:44;;;;;;;11.73;6.85;;;;;;;9.94;100.00;98576.25;8396118;27;20049;-50
2022/09/28 03:42:44;;;;;;;13.75;7.43;;;;;;;9.97;100.00;98580.44;8384435;28;20086;-51
2022/09/28 03:46:57;;;;;;;14.53;7.83;;;;;;;9.96;100.00;98581.47;8380055;28;20047;-50
2022/09/28 03:51:00;;;;;;;9.07;7.22;;;;;;;9.95;100.00;98585.22;8351939;28;20383;-52
2022/09/28 03:55:00;;;;;;;11.23;7.68;;;;;;;10.00;100.00;98582.78;8351997;28;20117;-49
2022/09/28 03:59:03;;;;;;;9.18;7.55;;;;;;;10.00;100.00;98588.19;8347946;28;20491;-49
2022/09/28 04:03:03;;;;;;;11.35;7.78;;;;;;;10.01;100.00;98590.69;8377595;27;20491;-48
2022/09/28 04:07:04;;;;;;;9.57;7.30;;;;;;;10.03;100.00;98588.66;8346089;28;20414;-49
2022/09/28 04:11:04;;;;;;;10.45;7.18;;;;;;;10.00;100.00;98588.19;8351935;28;20404;-49
2022/09/28 04:15:05;;;;;;;8.98;6.95;;;;;;;9.99;100.00;98581.09;8325578;28;20373;-49
2022/09/28 04:19:06;;;;;;;16.90;7.75;;;;;;;10.00;100.00;98586.31;8325422;28;20124;-50
2022/09/28 04:23:06;;;;;;;10.40;6.45;;;;;;;10.01;100.00;98584.47;8325967;28;20114;-49
2022/09/28 04:31:28;;;;;;;13.35;7.10;;;;;;;10.01;100.00;98590.69;8317311;28;20036;-49
2022/09/28 04:35:29;;;;;;;10.40;6.57;;;;;;;9.96;100.00;98593.13;8349669;28;20032;-51
2022/09/28 04:39:29;;;;;;;7.00;5.90;;;;;;;9.98;100.00;98591.06;8367941;28;20041;-49
2022/09/28 04:43:29;;;;;;;9.63;5.80;;;;;;;9.98;100.00;98606.44;8348683;28;20071;-48
2022/09/28 04:47:30;;;;;;;8.98;5.55;;;;;;;10.00;100.00;98609.78;8332804;28;20041;-49
2022/09/28 04:51:31;;;;;;;10.93;5.43;;;;;;;9.99;100.00;98597.31;8334756;28;20220;-49
2022/09/28 04:55:31;;;;;;;7.30;5.60;;;;;;;9.98;100.00;98598.34;8324731;28;20483;-49
2022/09/28 04:59:32;;;;;;;8.68;5.72;;;;;;;9.91;100.00;98600.06;8337946;28;20032;-51
2022/09/28 05:03:32;;;;;;;8.00;5.93;;;;;;;9.95;100.00;98607.63;8334645;28;20151;-50
2022/09/28 05:07:33;;;;;;;9.52;5.25;;;;;;;9.95;100.00;98602.22;8340475;28;20041;-49
2022/09/28 05:11:34;;;;;;;11.13;5.70;;;;;;;9.89;100.00;98608.34;8353000;28;20028;-49
2022/09/28 05:15:35;;;;;;;9.68;5.63;;;;;;;9.93;100.00;98608.84;8355018;28;20041;-50
2022/09/28 05:19:36;;;;;;;6.10;5.07;;;;;;;9.94;100.00;98613.19;8355732;28;20055;-50
2022/09/28 05:23:36;;;;;;;10.23;5.88;;;;;;;9.94;100.00;98615.91;8354208;28;20128;-49
2022/09/28 05:27:36;;;;;;;9.48;5.88;;;;;;;9.90;100.00;98607.34;8373936;28;20099;-49
2022/09/28 05:31:37;;;;;;;8.90;5.88;;;;;;;9.89;100.00;98610.22;8354400;28;20127;-49
2022/09/28 05:35:38;;;;;;;12.07;6.15;;;;;;;9.90;100.00;98603.81;8355302;28;20037;-51
2022/09/28 05:39:38;;;;;;;7.88;5.30;;;;;;;9.97;100.00;98604.75;8351274;28;20041;-49
2022/09/28 05:43:38;;;;;;;9.57;5.40;;;;;;;9.90;100.00;98610.06;8352170;28;20592;-49
2022/09/28 05:47:41;;;;;;;8.68;4.95;;;;;;;9.86;100.00;98603.31;8355718;28;20063;-49
2022/09/28 05:51:41;;;;;;;6.68;5.10;;;;;;;9.83;100.00;98608.25;8345521;28;20036;-49
2022/09/28 05:55:42;;;;;;;7.18;5.40;;;;;;;9.83;100.00;98605.56;8321454;28;20475;-50
2022/09/28 05:59:42;;;;;;;7.63;4.68;;;;;;;9.87;100.00;98614.97;8314914;28;20511;-53
2022/09/28 06:03:42;;;;;;;9.10;4.53;;;;;;;9.92;100.00;98618.78;8292746;28;20085;-50
2022/09/28 06:07:43;;;;;;;8.93;5.05;;;;;;;9.93;100.00;98615.09;8293531;28;20032;-50
2022/09/28 06:11:43;;;;;;;9.35;4.50;;;;;;;9.98;100.00;98619.94;8311074;28;20029;-49
2022/09/28 06:15:45;;;;;;;6.35;4.40;;;;;;;10.00;100.00;98623.25;8323167;28;20037;-51
2022/09/28 06:19:46;;;;;;;9.85;4.70;;;;;;;10.04;100.00;98632.69;8322773;28;20383;-50
2022/09/28 06:23:46;;;;;;;9.77;5.10;;;;;;;10.08;100.00;98634.03;8324062;28;20044;-49
2022/09/28 06:27:56;;;;;;;6.95;4.20;;;;;;;10.12;100.00;98640.72;8322744;28;20065;-53
2022/09/28 06:31:57;;;;;;;4.40;4.00;;;;;;;10.13;100.00;98641.59;8299220;28;20056;-50
2022/09/28 06:35:58;;;;;;;8.98;4.00;;;;;;;10.20;100.00;98648.75;8309705;28;20125;-49
2022/09/28 06:39:58;;;;;;;6.85;4.28;;;;;;;10.29;100.00;98649.50;8311217;28;20053;-51
2022/09/28 06:44:00;;;;;;;6.43;3.83;;;;;;;10.38;100.00;98651.97;8323744;28;20504;-52
2022/09/28 06:48:02;;;;;;;7.95;4.35;;;;;;;10.46;100.00;98661.84;8310268;28;20499;-50
2022/09/28 06:52:02;;;;;;;7.32;4.32;;;;;;;10.52;100.00;98659.22;8336038;28;20037;-49
2022/09/28 06:56:03;;;;;;;11.23;4.70;;;;;;;10.58;100.00;98655.78;8353275;28;20040;-49
2022/09/28 07:00:04;;;;;;;8.32;4.85;;;;;;;10.60;100.00;98667.25;8314325;28;20049;-50
2022/09/28 07:04:04;;;;;;;7.90;4.35;;;;;;;10.61;100.00;98663.50;8292048;28;20148;-49
2022/09/28 07:08:05;;;;;;;7.53;4.70;;;;;;;10.57;100.00;98670.31;8289172;28;20057;-50
2022/09/28 07:12:08;;;;;;;8.75;5.07;;;;;;;10.59;100.00;98670.13;8309905;28;20041;-50
2022/09/28 07:16:11;;;;;;;13.07;5.23;;;;;;;10.63;100.00;98666.88;8339444;28;20416;-50
2022/09/28 07:20:12;;;;;;;10.68;5.43;;;;;;;10.73;100.00;98682.81;8320977;28;20029;-50
2022/09/28 07:24:13;;;;;;;10.07;5.60;;;;;;;10.77;100.00;98674.13;8323440;28;20124;-49
2022/09/28 07:28:15;;;;;;;10.02;5.07;;;;;;;10.91;100.00;98681.41;8340115;28;20041;-49
2022/09/28 07:32:15;;;;;;;8.85;4.70;;;;;;;10.96;100.00;98683.53;8372237;28;20401;-52
2022/09/28 07:36:19;;;;;;;5.93;3.80;;;;;;;11.04;100.00;98692.38;8372454;28;20041;-49
2022/09/28 07:41:31;;;;;;;8.15;3.97;;;;;;;11.07;100.00;98702.81;8364041;28;20032;-49
2022/09/28 07:44:40;;;;;;;9.50;4.57;;;;;;;11.13;100.00;98707.47;8356979;28;20398;-52
2022/09/28 07:48:42;;;;;;;7.07;4.43;;;;;;;11.21;100.00;98715.50;8357874;28;20059;-52
2022/09/28 07:52:44;;;;;;;6.97;3.92;;;;;;;11.29;100.00;98720.78;8362207;28;20067;-50
2022/09/28 07:56:45;;;;;;;9.02;4.68;;;;;;;11.46;100.00;98719.56;8361938;28;20041;-49
2022/09/28 08:00:48;;;;;;;6.63;3.45;;;;;;;11.86;100.00;98726.28;8364016;28;20144;-50
2022/09/28 08:04:49;;;;;;;4.70;2.70;;;;;;;12.02;98.18;98719.78;8377321;28;20048;-53
2022/09/28 08:08:51;;;;;;;4.75;2.30;;;;;;;12.06;96.33;98730.03;8376979;28;20041;-49
2022/09/28 08:12:55;;;;;;;5.20;1.98;;;;;;;11.98;97.50;98729.34;8362921;28;20068;-50
2022/09/28 08:16:55;;;;;;;6.03;2.15;;;;;;;11.87;98.93;98734.19;8337601;28;20053;-49
2022/09/28 08:21:56;;;;;;;3.70;2.15;;;;;;;11.75;97.53;98734.91;8372914;28;20069;-50
2022/09/28 08:25:16;;;;;;;6.43;2.33;;;;;;;11.82;96.75;98728.53;8356149;28;20061;-53
2022/09/28 08:29:16;;;;;;;3.92;1.90;;;;;;;11.86;96.19;98737.94;8331727;28;20124;-50
2022/09/28 08:33:20;;;;;;;6.72;2.05;;;;;;;11.95;95.43;98740.53;8341546;28;20452;-50
2022/09/28 08:37:20;;;;;;;3.25;1.30;;;;;;;12.10;93.31;98754.88;8357871;28;20033;-50
2022/09/28 08:45:34;;;;;;;7.05;1.90;;;;;;;12.46;92.89;98761.03;8322332;27;20396;-49
2022/09/28 08:49:40;;;;;;;2.70;1.10;;;;;;;12.34;92.38;98757.16;8345148;28;20120;-50
2022/09/28 08:53:49;;;;;;;3.20;1.02;;;;;;;12.44;91.91;98754.97;8351645;28;20087;-49
2022/09/28 08:57:58;;;;;;;3.28;0.95;;;;;;;12.47;90.09;98768.97;8345267;28;20102;-48
2022/09/28 09:02:02;;;;;;;4.93;1.20;;;;;;;12.64;90.00;98756.81;8349874;28;20438;-52
2022/09/28 09:06:42;;;;;;;2.58;1.10;;;;;;;13.15;88.36;98770.97;8351580;28;20071;-49
2022/09/28 09:11:18;;;;;;;7.07;1.65;;;;;;;13.28;85.37;98773.75;8316913;28;20168;-49
2022/09/28 09:15:32;;;;;;;7.65;1.42;;;;;;;13.25;85.05;98774.16;8317915;28;20041;-49
2022/09/28 09:19:50;;;;;;;2.15;1.08;;;;;;;14.18;81.25;98767.00;8318023;28;20099;-49
2022/09/28 09:23:54;;;;;;;1.92;0.75;;;;;;;14.25;81.32;98776.06;8318218;28;20038;-52
2022/09/28 09:28:35;;;;;;;4.97;1.65;;;;;;;13.92;81.55;98777.81;8320963;28;20045;-49
2022/09/28 09:33:12;;;;;;;4.80;1.10;;;;;;;13.79;80.92;98784.03;8348224;28;20034;-50
2022/09/28 09:42:22;;;;;;;1.33;0.90;;;;;;;15.03;76.20;98784.22;8315072;28;20389;-49
2022/09/28 09:46:34;;;;;;;2.47;0.93;;;;;;;14.40;78.64;98793.03;8312581;28;20231;-50
2022/09/28 09:50:46;;;;;;;1.95;1.00;;;;;;;13.77;79.38;98790.72;8318300;28;20109;-50
2022/09/28 09:54:54;;;;;;;1.88;1.00;;;;;;;13.64;81.53;98796.91;8318694;28;20040;-49
2022/09/28 09:59:01;;;;;;;2.92;1.08;;;;;;;13.54;81.36;98790.16;8311674;28;20046;-49
2022/09/28 10:03:01;;;;;;;5.32;1.30;;;;;;;13.85;83.39;98798.69;8318518;28;20056;-52
2022/09/28 10:07:05;;;;;;;4.00;1.30;;;;;;;14.18;81.84;98794.16;8318471;28;20154;-49
2022/09/28 10:11:28;;;;;;;2.72;0.82;;;;;;;14.43;81.74;98795.31;8304429;28;20073;-51
2022/09/28 10:15:32;;;;;;;4.95;0.90;;;;;;;14.80;80.41;98788.44;8285908;28;20049;-50
2022/09/28 10:19:34;;;;;;;4.05;1.00;;;;;;;15.56;76.48;98783.09;8285809;28;20046;-49
2022/09/28 10:23:36;;;;;;;4.35;0.70;;;;;;;17.21;70.57;98790.88;8284372;28;20044;-50
2022/09/28 10:27:44;;;;;;;9.55;0.80;;;;;;;19.56;63.78;98781.19;8287531;28;20045;-50
2022/09/28 10:31:47;;;;;;;1.88;0.63;;;;;;;20.42;58.56;98785.53;8316525;28;20111;-50
2022/09/28 10:35:48;;;;;;;1.40;0.60;;;;;;;20.64;57.37;98783.72;8311593;28;20097;-51
2022/09/28 10:39:53;;;;;;;2.80;0.68;;;;;;;22.06;56.30;98782.97;8280324;28;20507;-49
2022/09/28 10:44:07;;;;;;;1.13;0.57;;;;;;;20.93;56.20;98787.25;8270777;28;20042;-51
2022/09/28 10:48:19;;;;;;;2.10;0.90;;;;;;;20.00;59.32;98786.03;8275106;28;20049;-49
2022/09/28 10:52:40;;;;;;;2.05;0.60;;;;;;;19.93;59.00;98785.28;8268695;28;20046;-50
2022/09/28 10:56:41;;;;;;;4.75;0.90;;;;;;;17.56;64.02;98782.94;8263653;28;20121;-51
2022/09/28 11:00:43;;;;;;;3.28;0.52;;;;;;;16.69;67.63;98776.84;8270300;28;20041;-50
2022/09/28 11:04:50;;;;;;;5.93;0.60;;;;;;;15.74;70.50;98785.97;8267260;28;20040;-50
2022/09/28 11:08:52;;;;;;;2.35;0.60;;;;;;;16.77;69.35;98779.31;8274103;28;20485;-50
2022/09/28 11:12:53;;;;;;;3.00;0.73;;;;;;;16.56;69.76;98782.41;8255346;28;20027;-50
2022/09/28 11:17:31;;;;;;;3.78;0.98;;;;;;;16.64;68.98;98787.56;8262887;28;20038;-49
2022/09/28 11:21:41;;;;;;;3.30;0.63;;;;;;;17.46;69.01;98788.13;8263717;28;20042;-50
2022/09/28 11:25:42;;;;;;;2.25;0.50;;;;;;;17.90;66.10;98798.72;8294048;28;20038;-49
2022/09/28 11:29:50;;;;;;;2.75;0.60;;;;;;;17.11;67.06;98795.16;8289968;28;20429;-53
2022/09/28 11:34:00;;;;;;;1.35;0.73;;;;;;;16.57;69.87;98794.97;8294010;28;20559;-50
2022/09/28 11:38:35;;;;;;;7.88;0.60;;;;;;;15.83;71.27;98785.72;8293634;28;20555;-50
2022/09/28 11:43:12;;;;;;;1.80;0.60;;;;;;;15.81;72.96;98793.28;8241221;28;20065;-54
2022/09/28 11:47:36;;;;;;;4.57;0.70;;;;;;;15.45;71.85;98794.66;8253545;28;20063;-51
2022/09/28 11:51:41;;;;;;;3.08;0.80;;;;;;;15.22;75.33;98799.69;8262939;28;20419;-48
2022/09/28 11:56:04;;;;;;;1.70;0.70;;;;;;;14.89;76.85;98796.19;8258466;28;20049;-49
2022/09/28 12:00:11;;;;;;;1.10;0.50;;;;;;;15.17;75.14;98795.94;8265045;28;20035;-52
2022/09/28 12:04:39;;;;;;;7.70;0.70;;;;;;;15.25;75.46;98801.97;8250502;28;20563;-49
2022/09/28 12:08:44;;;;;;;3.50;0.98;;;;;;;15.31;73.92;98803.03;8230011;28;20062;-49
2022/09/28 12:12:52;;;;;;;1.55;0.50;;;;;;;16.20;72.98;98787.63;8244574;28;20078;-51
2022/09/28 12:16:59;;;;;;;2.63;0.60;;;;;;;15.94;71.70;98794.06;8241594;28;20871;-48
2022/09/28 12:21:39;;;;;;;2.38;0.60;;;;;;;15.54;72.45;98798.81;8246308;28;20052;-48
2022/09/28 12:25:45;;;;;;;3.63;0.50;;;;;;;15.24;72.33;98794.03;8246208;28;20444;-50
2022/09/28 12:30:01;;;;;;;2.85;0.60;;;;;;;15.37;72.92;98797.59;8260028;28;20042;-49
2022/09/28 12:34:02;;;;;;;2.83;0.65;;;;;;;15.82;72.26;98800.41;8257227;28;20049;-50
2022/09/28 12:38:42;;;;;;;2.42;0.60;;;;;;;15.51;71.49;98799.25;8255341;28;20076;-48
2022/09/28 12:43:27;;;;;;;0.90;0.60;;;;;;;15.03;72.29;98795.09;8254488;28;20060;-49
2022/09/28 12:47:58;;;;;;;2.90;0.70;;;;;;;14.84;73.32;98801.41;8253142;28;20381;-50
2022/09/28 12:52:14;;;;;;;4.25;0.80;;;;;;;14.81;74.08;98792.81;8247346;28;20038;-48
2022/09/28 12:56:40;;;;;;;3.80;0.70;;;;;;;14.90;74.63;98795.13;8246339;28;20038;-48
2022/09/28 13:00:56;;;;;;;2.80;0.82;;;;;;;15.13;75.40;98789.25;8249873;28;20050;-47
2022/09/28 13:05:25;;;;;;;2.25;0.70;;;;;;;15.29;73.21;98784.19;8244442;28;20050;-48
2022/09/28 13:09:30;;;;;;;3.20;0.77;;;;;;;15.38;74.47;98782.97;8246067;28;20042;-49
2022/09/28 13:13:55;;;;;;;3.50;0.90;;;;;;;15.43;74.56;98785.84;8252640;28;20646;-49
2022/09/28 13:18:06;;;;;;;5.40;0.70;;;;;;;15.40;72.30;98780.00;8252395;28;20050;-48
2022/09/28 13:22:33;;;;;;;3.67;0.77;;;;;;;15.41;72.71;98782.50;8245114;28;20045;-48
2022/09/28 13:26:39;;;;;;;2.03;0.60;;;;;;;15.34;73.83;98772.66;8241107;28;20042;-51
2022/09/28 13:30:40;;;;;;;3.47;0.73;;;;;;;15.42;74.92;98784.19;8234760;28;20441;-49
2022/09/28 13:34:41;;;;;;;2.85;0.98;;;;;;;15.40;72.68;98780.00;8250039;28;20124;-49
2022/09/28 13:38:46;;;;;;;5.75;1.50;;;;;;;15.42;74.89;98778.75;8245660;28;20500;-49
2022/09/28 13:43:00;;;;;;;4.60;1.90;;;;;;;15.26;75.08;98783.78;8254655;28;20038;-49
2022/09/28 13:47:25;;;;;;;4.47;1.30;;;;;;;15.04;74.54;98794.06;8252635;28;20042;-49
2022/09/28 13:51:48;;;;;;;6.55;1.83;;;;;;;15.28;74.69;98777.06;8279000;28;20137;-49
2022/09/28 14:00:37;;;;;;;3.83;1.50;;;;;;;15.96;73.97;98777.47;8323984;27;20393;-48
2022/09/28 14:05:17;;;;;;;3.10;1.33;;;;;;;15.98;73.98;98783.56;8318397;28;20041;-48
2022/09/28 14:09:39;;;;;;;5.47;1.98;;;;;;;16.02;73.68;98782.91;8300493;28;20258;-48
2022/09/28 14:18:08;;;;;;;4.18;1.30;;;;;;;15.75;71.89;98786.81;8327541;27;20393;-47
2022/09/28 14:22:23;;;;;;;3.47;1.55;;;;;;;15.77;71.29;98787.44;8313050;28;20625;-48
2022/09/28 14:26:57;;;;;;;3.72;1.35;;;;;;;15.60;71.93;98786.22;8307972;28;20045;-48
2022/09/28 14:31:07;;;;;;;4.82;1.40;;;;;;;15.59;72.36;98790.81;8311033;28;20038;-50
2022/09/28 14:35:30;;;;;;;5.15;1.70;;;;;;;15.57;72.56;98792.94;8301432;28;20041;-48
2022/09/28 14:44:08;;;;;;;8.15;3.25;;;;;;;15.43;75.95;98788.56;8294184;28;20053;-49
2022/09/28 14:48:14;;;;;;;8.05;2.65;;;;;;;15.35;76.63;98794.25;8307737;28;20064;-48
2022/09/28 14:52:18;;;;;;;5.10;1.38;;;;;;;15.28;73.93;98798.84;8305984;28;20042;-50
2022/09/28 14:56:19;;;;;;;2.50;1.58;;;;;;;15.26;74.53;98798.22;8319548;28;20406;-51
2022/09/28 15:00:23;;;;;;;5.32;1.40;;;;;;;15.14;76.66;98802.66;8308955;28;20084;-48
2022/09/28 15:04:30;;;;;;;3.50;1.30;;;;;;;14.93;76.99;98811.03;8307099;28;20557;-49
2022/09/28 15:08:36;;;;;;;3.90;1.08;;;;;;;14.67;77.05;98811.00;8305805;28;20037;-48
2022/09/28 15:12:36;;;;;;;1.33;0.35;;;;;;;14.42;76.72;98814.56;8304976;28;20091;-48
2022/09/28 15:16:37;;;;;;;1.52;0.30;;;;;;;14.34;76.22;98821.03;8304903;28;20132;-51
2022/09/28 15:20:40;;;;;;;2.13;0.40;;;;;;;14.40;77.34;98809.34;8300139;28;20037;-49
2022/09/28 15:24:52;;;;;;;1.55;0.60;;;;;;;14.48;78.98;98820.00;8322104;28;20052;-49
2022/09/28 15:28:54;;;;;;;2.72;0.80;;;;;;;14.45;80.33;98823.13;8282611;28;20116;-48
2022/09/28 15:34:49;;;;;;;14.40;7.90;;;;;;;14.56;80.01;98811.66;8287225;28;20559;-49
2022/09/28 15:37:20;;;;;;;4.57;1.98;;;;;;;14.41;80.01;98829.19;8282679;28;20345;-49
2022/09/28 15:41:23;;;;;;;;;;;;;;;14.28;81.89;98835.44;8287366;28;20049;-49
2022/09/28 15:45:42;;;;;;;1.65;0.70;;;;;;;13.96;77.31;98844.28;8282457;28;19921;-48
2022/09/28 15:49:52;;;;;;;3.10;1.65;;;;;;;13.80;77.44;98845.47;8273354;28;20034;-48
2022/09/28 15:54:18;;;;;;;4.35;0.70;;;;;;;13.66;77.68;98845.59;8285821;28;20041;-49
2022/09/28 15:58:21;;;;;;;2.25;0.40;;;;;;;13.46;77.24;98863.66;8298660;28;20050;-51
2022/09/28 16:02:22;;;;;;;3.05;1.15;;;;;;;13.27;79.23;98858.94;8288413;28;20038;-48
2022/09/28 16:06:23;;;;;;;14.93;6.45;;;;;;;13.12;80.41;98855.47;8287803;28;20045;-51
2022/09/28 16:10:32;;;;;;;21.92;10.45;;;;;;;13.05;81.12;98860.03;8288453;28;20463;-50
2022/09/28 16:14:32;;;;;;;11.05;3.65;;;;;;;13.01;81.19;98854.16;8289589;28;20499;-48
2022/09/28 16:18:38;;;;;;;17.98;5.75;;;;;;;12.96;82.05;98866.59;8288589;28;20422;-49
2022/09/28 16:22:41;;;;;;;24.98;10.10;;;;;;;12.94;82.88;98865.94;8280056;28;20056;-51
2022/09/28 16:26:42;;;;;;;18.07;7.90;;;;;;;12.80;86.00;98873.13;8288438;28;20058;-48
2022/09/28 16:31:01;;;;;;;20.92;8.52;;;;;;;12.67;89.40;98873.00;8287559;28;20041;-49
2022/09/28 16:39:22;;;;;;;12.77;4.80;;;;;;;12.49;94.32;98875.31;8376999;27;20391;-47
2022/09/28 16:43:27;;;;;;;8.18;3.63;;;;;;;12.42;95.51;98881.69;8366338;28;20045;-47
2022/09/28 16:47:32;;;;;;;11.30;4.55;;;;;;;12.37;98.79;98876.00;8389768;27;20086;-49
2022/09/28 16:51:33;;;;;;;8.18;3.70;;;;;;;12.24;99.47;98887.56;8383278;28;20545;-46
2022/09/28 16:55:33;;;;;;;1.40;0.57;;;;;;;12.15;100.00;98893.25;8380217;28;20717;-47
2022/09/28 16:59:37;;;;;;;3.65;0.90;;;;;;;11.99;100.00;98894.34;8385606;28;20075;-46
2022/09/28 17:03:38;;;;;;;11.48;5.07;;;;;;;11.93;100.00;98891.53;8399592;28;20074;-49
2022/09/28 17:07:39;;;;;;;8.98;3.13;;;;;;;11.89;100.00;98902.75;8398641;28;20101;-50
2022/09/28 17:11:39;;;;;;;6.68;2.13;;;;;;;11.90;100.00;98911.72;8412199;28;20042;-47
2022/09/28 17:15:41;;;;;;;8.88;2.40;;;;;;;11.90;100.00;98912.53;8392730;28;20325;-48
2022/09/28 17:19:41;;;;;;;5.22;2.45;;;;;;;12.01;100.00;98911.22;8383239;28;20406;-47
2022/09/28 17:23:43;;;;;;;5.20;2.20;;;;;;;11.99;100.00;98909.72;8382452;28;20033;-47
2022/09/28 17:27:45;;;;;;;8.43;2.05;;;;;;;11.95;100.00;98917.38;8407818;28;20032;-47
2022/09/28 17:31:46;;;;;;;3.70;1.48;;;;;;;11.79;100.00;98921.16;8389573;28;20036;-48
2022/09/28 17:35:47;;;;;;;5.13;1.00;;;;;;;11.67;100.00;98917.22;8376972;28;20041;-48
2022/09/28 17:39:47;;;;;;;5.03;1.63;;;;;;;11.54;100.00;98917.00;8391754;28;20811;-48
2022/09/28 17:43:48;;;;;;;7.50;1.63;;;;;;;11.47;100.00;98920.63;8386175;28;20427;-47
2022/09/28 17:47:48;;;;;;;5.00;1.08;;;;;;;11.35;100.00;98922.13;8382169;28;20525;-49
2022/09/28 17:51:49;;;;;;;7.05;0.93;;;;;;;11.36;100.00;98919.22;8382636;28;20036;-48
2022/09/28 17:55:50;;;;;;;7.18;1.38;;;;;;;11.42;100.00;98923.91;8384984;28;20041;-47
2022/09/28 17:59:50;;;;;;;5.32;0.80;;;;;;;11.32;100.00;98922.47;8381971;28;20036;-50
2022/09/28 18:03:51;;;;;;;1.65;1.13;;;;;;;11.13;100.00;98923.84;8369000;28;20045;-47
2022/09/28 18:07:51;;;;;;;3.45;1.15;;;;;;;11.05;100.00;98929.34;8355767;28;20047;-50
2022/09/28 18:12:00;;;;;;;3.90;1.27;;;;;;;11.14;100.00;98930.94;8377932;28;20569;-48
2022/09/28 18:16:01;;;;;;;7.30;1.17;;;;;;;11.19;100.00;98928.50;8370275;28;20051;-50
2022/09/28 18:20:01;;;;;;;5.15;1.08;;;;;;;11.17;100.00;98938.69;8358384;28;20029;-49
2022/09/28 18:24:02;;;;;;;6.50;1.25;;;;;;;11.16;100.00;98938.88;8359147;28;20041;-49
2022/09/28 18:28:02;;;;;;;5.55;2.95;;;;;;;11.20;100.00;98935.59;8362880;28;20093;-48
2022/09/28 18:32:03;;;;;;;6.18;3.53;;;;;;;11.39;100.00;98939.66;8355349;28;20564;-48
2022/09/28 18:36:04;;;;;;;15.25;5.95;;;;;;;11.46;100.00;98946.84;8354743;28;20045;-47
2022/09/28 18:40:08;;;;;;;11.52;5.40;;;;;;;11.21;100.00;98947.25;8369455;28;20039;-50
2022/09/28 18:44:09;;;;;;;16.53;5.17;;;;;;;11.19;100.00;98955.56;8350498;28;20043;-48
2022/09/28 18:48:09;;;;;;;9.10;4.32;;;;;;;11.04;100.00;98954.66;8358869;28;20095;-47
2022/09/28 18:52:10;;;;;;;10.85;4.97;;;;;;;10.89;100.00;98950.25;8360773;28;20561;-47
2022/09/28 18:56:14;;;;;;;10.70;4.88;;;;;;;10.87;100.00;98958.53;8356346;28;20037;-47
2022/09/28 19:00:14;;;;;;;6.77;3.30;;;;;;;10.83;100.00;98953.66;8356287;28;20119;-48
2022/09/28 19:04:14;;;;;;;9.00;2.65;;;;;;;10.76;100.00;98968.91;8361709;28;20040;-49
2022/09/28 19:08:15;;;;;;;4.82;2.45;;;;;;;10.73;100.00;98967.41;8356010;28;20024;-48
2022/09/28 19:12:16;;;;;;;9.43;2.70;;;;;;;10.50;100.00;98966.56;8376440;28;20041;-47
2022/09/28 19:16:20;;;;;;;6.28;3.20;;;;;;;10.48;100.00;98976.69;8370443;28;20048;-47
2022/09/28 19:20:21;;;;;;;3.85;3.03;;;;;;;10.51;100.00;98970.09;8352501;28;20037;-49
2022/09/28 19:24:21;;;;;;;5.07;4.57;;;;;;;10.41;100.00;98970.34;8352561;28;20040;-47
2022/09/28 19:28:22;;;;;;;6.38;3.50;;;;;;;9.85;100.00;98978.63;8369767;28;20063;-48
2022/09/28 19:32:22;;;;;;;6.10;3.75;;;;;;;9.89;100.00;98979.97;8376557;28;20032;-47
2022/09/28 19:36:27;;;;;;;5.50;3.28;;;;;;;9.97;100.00;98977.22;8370232;28;20051;-47
2022/09/28 19:40:27;;;;;;;;;;;;;;;9.97;100.00;98979.94;8376788;28;20490;-47
2022/09/28 19:44:29;;;;;;;8.40;3.30;;;;;;;9.92;100.00;98979.63;8376720;28;19979;-48
2022/09/28 19:48:31;;;;;;;6.55;2.92;;;;;;;9.97;100.00;98985.34;8372742;28;20028;-48
2022/09/28 19:52:32;;;;;;;9.45;3.30;;;;;;;9.92;100.00;98990.44;8377747;28;20040;-47